Time;durP1;ratioP1;P1;durP2;ratioP2;P2;SDS_P1;SDS_P2;PMS_P1;PMS_P2;Temp;Humidity;BMP_temperature;BMP_pressure;BME280_temperature;BME280_humidity;BME280_pressure;Samples;Min_cycle;Max_cycle;Signal;HPM_P1;HPM_P2
2023/12/05 00:01:11;;;;;;;26.60;9.70;;;;;;;-6.08;100.00;100129.36;107306;1277;60074;-63
2023/12/05 00:04:00;;;;;;;31.50;11.50;;;;;;;-6.11;100.00;100132.15;106727;1278;1002601;-65
2023/12/05 00:06:48;;;;;;;33.40;11.40;;;;;;;-6.12;100.00;100127.66;107498;1278;67661;-65
2023/12/05 00:09:36;;;;;;;35.70;12.80;;;;;;;-6.14;100.00;100126.14;106714;1277;1002104;-67
2023/12/05 00:12:24;;;;;;;33.60;11.70;;;;;;;-6.17;100.00;100122.02;107569;1277;58648;-66
2023/12/05 00:15:13;;;;;;;32.60;12.20;;;;;;;-6.21;100.00;100121.70;107657;1278;58750;-65
2023/12/05 00:18:01;;;;;;;33.30;11.30;;;;;;;-6.24;100.00;100119.66;107457;1278;74710;-64
2023/12/05 00:20:48;;;;;;;25.60;10.90;;;;;;;-6.27;100.00;100122.95;107306;1277;69181;-64
2023/12/05 00:23:36;;;;;;;27.30;10.10;;;;;;;-6.29;100.00;100123.66;107570;1276;72748;-66
2023/12/05 00:26:24;;;;;;;34.40;13.00;;;;;;;-6.32;100.00;100123.52;107632;1276;58654;-65
2023/12/05 00:29:11;;;;;;;37.00;14.80;;;;;;;-6.40;99.99;100121.33;107539;1276;60485;-67
2023/12/05 00:31:59;;;;;;;23.50;10.50;;;;;;;-6.48;99.97;100122.77;107826;1275;74618;-64
2023/12/05 00:34:47;;;;;;;34.90;12.10;;;;;;;-6.59;99.97;100119.56;107652;1275;66616;-63
2023/12/05 00:37:35;;;;;;;36.60;13.10;;;;;;;-6.68;99.98;100122.55;107760;1275;72805;-65
2023/12/05 00:40:29;;;;;;;35.10;12.70;;;;;;;-6.74;100.00;100121.04;107813;1275;58615;-64
2023/12/05 00:43:17;;;;;;;31.40;11.60;;;;;;;-6.79;100.00;100122.96;107534;1276;60270;-63
2023/12/05 00:46:05;;;;;;;35.60;12.90;;;;;;;-6.86;100.00;100120.59;107658;1276;74559;-65
2023/12/05 00:48:53;;;;;;;41.70;14.50;;;;;;;-6.94;100.00;100125.63;107756;1275;67924;-65
2023/12/05 00:51:41;;;;;;;34.60;12.50;;;;;;;-7.01;100.00;100119.28;107688;1276;72995;-67
2023/12/05 00:54:28;;;;;;;35.00;13.20;;;;;;;-7.04;100.00;100125.00;107545;1276;58152;-66
2023/12/05 00:57:16;;;;;;;41.00;13.70;;;;;;;-7.05;100.00;100124.67;107552;1277;59013;-67
2023/12/05 01:00:09;;;;;;;31.50;10.50;;;;;;;-7.06;100.00;100129.15;106912;1278;1003025;-68
2023/12/05 01:02:57;;;;;;;41.10;11.10;;;;;;;-7.08;100.00;100130.02;106608;1278;1002842;-67
2023/12/05 01:05:45;;;;;;;37.10;13.40;;;;;;;-7.10;100.00;100130.20;107669;1275;72708;-65
2023/12/05 01:08:33;;;;;;;35.30;12.20;;;;;;;-7.09;100.00;100130.54;107547;1276;58122;-66
2023/12/05 01:11:22;;;;;;;36.30;13.20;;;;;;;-7.07;100.00;100128.80;107819;1275;58081;-65
2023/12/05 01:14:10;;;;;;;31.00;11.90;;;;;;;-7.04;100.00;100129.83;107670;1276;73906;-66
2023/12/05 01:16:58;;;;;;;33.30;11.60;;;;;;;-6.99;100.00;100124.11;107813;1275;66957;-65
2023/12/05 01:19:46;;;;;;;35.70;11.60;;;;;;;-6.98;100.00;100113.23;107645;1276;72330;-68
2023/12/05 01:22:33;;;;;;;26.50;10.50;;;;;;;-6.91;100.00;100116.31;107770;1275;58761;-65
2023/12/05 01:25:21;;;;;;;27.80;10.40;;;;;;;-6.89;100.00;100115.95;107609;1277;60093;-65
2023/12/05 01:28:09;;;;;;;30.30;11.60;;;;;;;-6.87;100.00;100116.64;107441;1277;74844;-66
2023/12/05 01:30:57;;;;;;;31.80;12.40;;;;;;;-6.83;100.00;100119.54;107649;1277;66668;-64
2023/12/05 01:33:45;;;;;;;33.30;11.20;;;;;;;-6.83;100.00;100109.36;106765;1277;1002999;-66
2023/12/05 01:36:33;;;;;;;34.40;12.50;;;;;;;-6.75;100.00;100117.27;107396;1278;58502;-66
2023/12/05 01:39:21;;;;;;;27.40;10.00;;;;;;;-6.71;99.96;100120.50;107511;1278;59047;-66
2023/12/05 01:42:08;;;;;;;27.30;10.40;;;;;;;-6.71;99.80;100123.08;107629;1278;73923;-63
2023/12/05 01:44:56;;;;;;;27.30;9.90;;;;;;;-6.73;99.81;100122.05;107541;1277;67622;-67
2023/12/05 01:47:44;;;;;;;25.60;8.10;;;;;;;-6.75;99.64;100125.02;107525;1278;71298;-66
2023/12/05 01:50:33;;;;;;;24.30;8.00;;;;;;;-6.75;99.93;100123.64;107425;1277;58250;-67
2023/12/05 01:53:22;;;;;;;24.00;9.00;;;;;;;-6.76;99.89;100123.30;106896;1278;1003029;-66
2023/12/05 01:56:12;;;;;;;28.60;9.70;;;;;;;-6.78;99.76;100121.74;107638;1277;74256;-68
2023/12/05 01:59:00;;;;;;;28.00;11.10;;;;;;;-6.81;99.66;100124.52;107628;1278;69139;-66
2023/12/05 02:01:49;;;;;;;25.90;9.50;;;;;;;-6.84;99.47;100123.52;106732;1278;1002689;-66
2023/12/05 02:04:38;;;;;;;23.60;8.20;;;;;;;-6.86;99.24;100129.73;106617;1278;1002624;-66
2023/12/05 02:07:26;;;;;;;20.30;6.90;;;;;;;-6.90;99.29;100124.77;107670;1278;59650;-65
2023/12/05 02:10:14;;;;;;;18.30;7.50;;;;;;;-6.94;99.12;100121.49;107669;1277;72530;-64
2023/12/05 02:13:02;;;;;;;28.10;10.90;;;;;;;-6.99;98.45;100121.70;107260;1277;68266;-66
2023/12/05 02:16:02;;;;;;;23.60;9.10;;;;;;;-7.08;98.10;100118.98;107603;1278;72389;-65
2023/12/05 02:19:08;;;;;;;27.40;9.20;;;;;;;-7.21;97.90;100115.05;107402;1277;58748;-65
2023/12/05 02:22:00;;;;;;;26.80;9.10;;;;;;;-7.33;97.84;100117.01;107374;1279;61350;-65
2023/12/05 02:25:25;;;;;;;28.60;11.00;;;;;;;-7.42;97.93;100114.29;107046;1280;73798;-64
2023/12/05 02:28:13;;;;;;;29.90;9.80;;;;;;;-7.50;98.76;100112.77;107360;1280;65909;-65
2023/12/05 02:31:01;;;;;;;34.40;12.20;;;;;;;-7.54;98.63;100118.80;107427;1280;71399;-65
2023/12/05 02:33:49;;;;;;;30.20;8.80;;;;;;;-7.64;98.71;100103.50;107275;1279;58679;-66
2023/12/05 02:36:52;;;;;;;28.00;9.30;;;;;;;-7.56;99.63;100115.36;106699;1279;1003385;-66
2023/12/05 02:39:57;;;;;;;33.50;13.60;;;;;;;-7.57;99.52;100116.40;107211;1279;72804;-67
2023/12/05 02:42:50;;;;;;;32.20;10.60;;;;;;;-7.56;99.77;100119.15;107324;1279;68758;-65
2023/12/05 02:45:40;;;;;;;45.50;17.00;;;;;;;-7.56;99.62;100116.23;106625;1280;1002391;-65
2023/12/05 02:48:29;;;;;;;36.20;13.40;;;;;;;-7.56;99.83;100114.50;107210;1280;58428;-67
2023/12/05 02:51:17;;;;;;;39.30;14.90;;;;;;;-7.56;99.77;100110.20;107382;1280;61095;-66
2023/12/05 02:54:08;;;;;;;39.20;13.70;;;;;;;-7.55;99.80;100109.67;107301;1281;75151;-66
2023/12/05 02:56:56;;;;;;;45.70;15.40;;;;;;;-7.56;99.86;100108.30;107340;1279;67907;-66
2023/12/05 02:59:44;;;;;;;31.30;11.50;;;;;;;-7.57;99.70;100107.78;107408;1279;72870;-66
2023/12/05 03:02:32;;;;;;;45.60;16.10;;;;;;;-7.59;99.98;100110.36;107280;1280;58780;-68
2023/12/05 03:05:20;;;;;;;44.60;16.10;;;;;;;-7.60;99.83;100110.89;107445;1280;59982;-66
2023/12/05 03:08:08;;;;;;;40.60;15.10;;;;;;;-7.62;100.00;100111.93;107335;1279;72550;-66
2023/12/05 03:10:55;;;;;;;39.30;14.80;;;;;;;-7.63;100.00;100106.77;107427;1279;67692;-66
2023/12/05 03:13:53;;;;;;;40.90;14.30;;;;;;;-7.67;99.87;100106.27;107398;1280;72432;-66
2023/12/05 03:16:43;;;;;;;41.20;15.70;;;;;;;-7.73;99.73;100103.70;107323;1279;58755;-66
2023/12/05 03:19:31;;;;;;;42.70;15.20;;;;;;;-7.75;99.90;100104.73;107316;1280;59534;-66
2023/12/05 03:22:19;;;;;;;30.60;10.20;;;;;;;-7.81;99.92;100105.61;107395;1279;73412;-66
2023/12/05 03:25:07;;;;;;;47.40;15.50;;;;;;;-7.90;99.94;100105.80;107428;1279;67048;-65
2023/12/05 03:27:55;;;;;;;41.80;14.40;;;;;;;-7.96;100.00;100105.11;107322;1279;72791;-65
2023/12/05 03:30:43;;;;;;;47.30;16.80;;;;;;;-7.99;100.00;100103.05;107337;1281;58594;-64
2023/12/05 03:33:31;;;;;;;39.70;13.60;;;;;;;-8.00;100.00;100106.49;107437;1279;59214;-65
2023/12/05 03:36:19;;;;;;;32.40;11.10;;;;;;;-8.04;100.00;100109.95;106568;1279;1002932;-65
2023/12/05 03:39:08;;;;;;;44.30;16.20;;;;;;;-8.07;100.00;100105.46;107444;1280;65585;-65
2023/12/05 03:41:56;;;;;;;41.60;13.70;;;;;;;-8.07;100.00;100106.84;106652;1280;1002913;-66
2023/12/05 03:44:44;;;;;;;44.70;13.60;;;;;;;-8.04;100.00;100105.47;107374;1279;58647;-67
2023/12/05 03:47:31;;;;;;;40.30;13.40;;;;;;;-8.03;100.00;100101.84;106662;1279;1002570;-65
2023/12/05 03:50:19;;;;;;;42.70;14.90;;;;;;;-7.99;100.00;100099.77;107330;1280;72295;-67
2023/12/05 03:53:07;;;;;;;44.20;14.00;;;;;;;-7.94;100.00;100098.73;107359;1279;68054;-65
2023/12/05 03:55:55;;;;;;;43.20;15.00;;;;;;;-7.89;100.00;100099.59;107414;1280;72337;-65
2023/12/05 03:58:43;;;;;;;36.30;13.00;;;;;;;-7.85;100.00;100099.91;107083;1279;58439;-66
2023/12/05 04:01:31;;;;;;;34.70;11.80;;;;;;;-7.79;100.00;100102.33;107421;1279;58393;-65
2023/12/05 04:04:19;;;;;;;36.70;12.70;;;;;;;-7.72;100.00;100102.14;107342;1279;74839;-66
2023/12/05 04:07:07;;;;;;;37.50;13.20;;;;;;;-7.64;100.00;100101.60;107124;1283;66664;-65
2023/12/05 04:09:55;;;;;;;37.40;12.80;;;;;;;-7.58;100.00;100102.11;107299;1280;71594;-64
2023/12/05 04:12:43;;;;;;;29.20;10.20;;;;;;;-7.53;100.00;100103.64;107293;1279;59856;-67
2023/12/05 04:15:31;;;;;;;31.00;11.80;;;;;;;-7.46;100.00;100105.52;107459;1279;59190;-66
2023/12/05 04:18:18;;;;;;;34.10;12.60;;;;;;;-7.45;100.00;100098.27;107404;1280;74949;-65
2023/12/05 04:21:07;;;;;;;35.80;8.40;;;;;;;-7.34;100.00;100097.19;107458;1277;68636;-67
2023/12/05 04:23:55;;;;;;;34.90;12.30;;;;;;;-7.28;100.00;100100.45;107453;1280;72556;-66
2023/12/05 04:26:43;;;;;;;32.60;10.70;;;;;;;-7.22;100.00;100100.92;107476;1278;59869;-66
2023/12/05 04:29:31;;;;;;;33.50;12.10;;;;;;;-7.15;100.00;100103.66;107469;1279;60210;-65
2023/12/05 04:32:19;;;;;;;27.50;11.80;;;;;;;-7.09;100.00;100102.25;107352;1278;73926;-65
2023/12/05 04:35:07;;;;;;;35.30;12.20;;;;;;;-7.02;100.00;100103.59;106733;1278;1002718;-65
2023/12/05 04:37:55;;;;;;;31.40;12.70;;;;;;;-6.95;100.00;100101.84;107529;1277;73806;-66
2023/12/05 04:40:42;;;;;;;38.80;12.80;;;;;;;-6.92;100.00;100101.13;107420;1279;58103;-66
2023/12/05 04:43:30;;;;;;;34.30;12.40;;;;;;;-6.87;100.00;100101.27;107487;1277;59107;-64
2023/12/05 04:46:18;;;;;;;40.10;13.00;;;;;;;-6.82;99.87;100104.69;107628;1278;73592;-66
2023/12/05 04:49:07;;;;;;;44.60;14.40;;;;;;;-6.76;99.82;100103.27;107483;1278;66637;-66
2023/12/05 04:51:55;;;;;;;37.80;13.40;;;;;;;-6.75;99.77;100102.75;107585;1278;72808;-65
2023/12/05 04:54:43;;;;;;;39.70;13.30;;;;;;;-6.74;99.52;100106.89;107430;1277;58639;-66
2023/12/05 04:57:30;;;;;;;41.60;15.00;;;;;;;-6.74;98.95;100103.77;107487;1277;60022;-66
2023/12/05 05:00:19;;;;;;;41.40;15.20;;;;;;;-6.74;98.75;100105.15;107586;1278;74608;-66
2023/12/05 05:03:06;;;;;;;43.90;15.40;;;;;;;-6.77;98.36;100105.35;107590;1278;67986;-66
2023/12/05 05:05:55;;;;;;;41.60;15.00;;;;;;;-6.80;98.31;100109.86;107424;1278;72677;-66
2023/12/05 05:08:43;;;;;;;33.30;13.80;;;;;;;-6.85;98.20;100109.89;107234;1279;58986;-66
2023/12/05 05:11:32;;;;;;;32.90;11.60;;;;;;;-6.90;97.51;100107.33;107358;1278;59065;-67
2023/12/05 05:14:20;;;;;;;43.50;14.60;;;;;;;-6.95;97.73;100110.80;107580;1277;73880;-65
2023/12/05 05:17:08;;;;;;;39.90;13.50;;;;;;;-7.02;96.97;100112.73;107453;1278;67708;-66
2023/12/05 05:19:56;;;;;;;38.80;13.00;;;;;;;-7.09;96.79;100111.23;107412;1278;72804;-65
2023/12/05 05:22:44;;;;;;;38.30;13.60;;;;;;;-7.19;96.07;100106.42;107332;1278;58174;-64
2023/12/05 05:25:34;;;;;;;37.90;13.90;;;;;;;-7.28;96.48;100103.36;106751;1278;1002800;-65
2023/12/05 05:28:22;;;;;;;47.10;15.20;;;;;;;-7.34;96.91;100109.43;107385;1278;75157;-66
2023/12/05 05:31:09;;;;;;;42.70;13.90;;;;;;;-7.40;96.30;100116.17;107523;1278;67920;-67
2023/12/05 05:33:57;;;;;;;41.00;15.20;;;;;;;-7.46;96.74;100110.50;106065;1278;1002441;-65
2023/12/05 05:36:45;;;;;;;37.20;13.80;;;;;;;-7.49;96.82;100106.38;106817;1278;1002193;-66
2023/12/05 05:39:33;;;;;;;40.20;15.20;;;;;;;-7.53;97.24;100110.02;106654;1276;1002711;-62
2023/12/05 05:42:20;;;;;;;50.90;16.50;;;;;;;-7.56;96.66;100107.10;107342;1278;72944;-64
2023/12/05 05:45:09;;;;;;;49.70;15.80;;;;;;;-7.59;96.67;100107.97;107545;1278;69111;-62
2023/12/05 05:47:57;;;;;;;47.70;14.60;;;;;;;-7.61;96.97;100111.75;107538;1277;72729;-65
2023/12/05 05:50:45;;;;;;;47.00;14.90;;;;;;;-7.69;96.74;100104.20;107479;1278;59574;-65
2023/12/05 05:53:33;;;;;;;46.70;15.70;;;;;;;-7.68;96.58;100112.29;107677;1278;59221;-66
2023/12/05 05:56:22;;;;;;;42.20;13.40;;;;;;;-7.73;97.01;100112.48;107618;1278;74007;-63
2023/12/05 05:59:10;;;;;;;44.30;15.40;;;;;;;-7.76;96.90;100108.87;107156;1279;68935;-62
2023/12/05 06:01:58;;;;;;;47.40;15.30;;;;;;;-7.77;97.20;100107.83;107566;1279;72577;-63
2023/12/05 06:04:46;;;;;;;48.70;15.60;;;;;;;-7.78;97.41;100109.39;107458;1278;58263;-64
2023/12/05 06:07:34;;;;;;;45.40;14.40;;;;;;;-7.78;97.62;100111.80;107403;1277;61111;-63
2023/12/05 06:10:22;;;;;;;50.70;15.60;;;;;;;-7.76;97.77;100116.45;106767;1278;1002496;-64
2023/12/05 06:13:10;;;;;;;43.20;15.30;;;;;;;-7.75;98.11;100115.59;107507;1276;68071;-64
2023/12/05 06:15:58;;;;;;;43.90;16.40;;;;;;;-7.75;98.20;100115.24;107049;1276;1002459;-65
2023/12/05 06:18:46;;;;;;;45.10;14.40;;;;;;;-7.72;98.23;100116.44;107717;1276;58747;-65
2023/12/05 06:21:34;;;;;;;44.80;15.20;;;;;;;-7.64;98.80;100118.31;106819;1276;1002560;-67
2023/12/05 06:24:22;;;;;;;48.70;15.50;;;;;;;-7.55;98.52;100119.34;107651;1276;73719;-69
2023/12/05 06:27:10;;;;;;;48.00;15.80;;;;;;;-7.49;97.87;100121.73;107775;1276;67940;-65
2023/12/05 06:29:58;;;;;;;48.90;15.70;;;;;;;-7.42;98.13;100119.45;107809;1276;72797;-68
2023/12/05 06:32:56;;;;;;;46.30;16.00;;;;;;;-7.34;97.57;100120.82;107758;1276;58694;-65
2023/12/05 06:35:44;;;;;;;49.20;15.30;;;;;;;-7.27;97.70;100112.84;107537;1276;60396;-63
2023/12/05 06:38:32;;;;;;;37.50;13.90;;;;;;;-7.19;97.27;100114.89;107061;1276;1014956;-65
2023/12/05 06:41:20;;;;;;;38.20;12.40;;;;;;;-7.08;97.23;100118.28;107832;1276;68750;-65
2023/12/05 06:44:08;;;;;;;36.90;12.90;;;;;;;-6.98;97.22;100118.92;107626;1276;72434;-66
2023/12/05 06:46:56;;;;;;;34.40;11.20;;;;;;;-6.87;96.68;100120.95;107539;1278;59243;-65
2023/12/05 06:49:44;;;;;;;33.60;11.80;;;;;;;-6.76;96.45;100125.71;107502;1277;60146;-65
2023/12/05 06:52:31;;;;;;;31.40;10.80;;;;;;;-6.64;95.97;100119.42;107520;1278;74943;-65
2023/12/05 06:55:19;;;;;;;28.70;10.40;;;;;;;-6.52;96.28;100117.27;107531;1278;69393;-64
2023/12/05 06:58:08;;;;;;;36.80;10.70;;;;;;;-6.41;95.81;100120.48;106403;1277;1002551;-67
2023/12/05 07:00:55;;;;;;;35.30;12.30;;;;;;;-6.30;95.86;100117.61;107449;1278;58970;-63
2023/12/05 07:03:43;;;;;;;30.30;10.70;;;;;;;-6.19;95.52;100120.30;107590;1278;59399;-65
2023/12/05 07:06:42;;;;;;;33.40;11.40;;;;;;;-6.06;94.82;100118.64;107544;1279;74588;-68
2023/12/05 07:09:33;;;;;;;27.10;9.80;;;;;;;-5.92;94.37;100119.70;107549;1278;66660;-66
2023/12/05 07:12:21;;;;;;;29.80;10.80;;;;;;;-5.77;94.47;100119.36;107543;1279;73815;-63
2023/12/05 07:15:09;;;;;;;32.10;10.20;;;;;;;-5.63;94.32;100114.21;107523;1278;58153;-69
2023/12/05 07:17:57;;;;;;;25.00;9.70;;;;;;;-5.49;93.90;100119.08;107479;1278;58764;-65
2023/12/05 07:20:45;;;;;;;25.70;9.80;;;;;;;-5.33;93.35;100115.95;107574;1279;72594;-68
2023/12/05 07:23:33;;;;;;;24.10;8.10;;;;;;;-5.17;92.67;100111.44;107518;1278;66783;-68
2023/12/05 07:26:21;;;;;;;20.60;6.80;;;;;;;-5.02;92.09;100114.19;107468;1278;72747;-67
2023/12/05 07:29:09;;;;;;;22.80;7.90;;;;;;;-4.89;91.25;100112.80;107392;1276;58478;-66
2023/12/05 07:31:57;;;;;;;19.70;6.70;;;;;;;-4.74;91.12;100111.21;107516;1277;60096;-68
2023/12/05 07:34:45;;;;;;;20.60;7.20;;;;;;;-4.60;90.08;100103.92;107456;1279;72364;-65
2023/12/05 07:37:33;;;;;;;18.90;6.00;;;;;;;-4.47;89.00;100106.16;107370;1279;68184;-69
2023/12/05 07:40:21;;;;;;;18.00;6.00;;;;;;;-4.40;88.09;100095.98;107544;1277;72436;-70
2023/12/05 07:43:09;;;;;;;25.00;7.50;;;;;;;-4.25;87.47;100101.12;106820;1278;1002481;-66
2023/12/05 07:45:56;;;;;;;18.50;6.90;;;;;;;-4.15;87.38;100103.89;107577;1278;60406;-68
2023/12/05 07:48:44;;;;;;;20.50;6.80;;;;;;;-4.06;87.48;100099.06;107449;1278;74983;-67
2023/12/05 07:51:32;;;;;;;17.70;6.70;;;;;;;-3.97;87.10;100098.39;107537;1278;68897;-67
2023/12/05 07:54:20;;;;;;;21.00;6.40;;;;;;;-3.87;86.72;100097.70;107532;1278;73843;-70
2023/12/05 07:57:09;;;;;;;17.40;6.10;;;;;;;-3.78;86.23;100091.29;107426;1279;59461;-65
2023/12/05 07:59:56;;;;;;;15.40;5.90;;;;;;;-3.65;85.41;100097.66;106764;1279;1002805;-66
2023/12/05 08:02:46;;;;;;;19.50;6.60;;;;;;;-3.54;85.14;100097.27;107604;1279;72353;-68
2023/12/05 08:05:34;;;;;;;20.40;7.10;;;;;;;-3.43;84.65;100098.44;107474;1282;67989;-67
2023/12/05 08:08:23;;;;;;;23.50;8.60;;;;;;;-3.30;84.97;100100.63;106676;1277;1015117;-68
2023/12/05 08:11:11;;;;;;;21.10;7.30;;;;;;;-3.19;84.61;100102.14;107449;1279;58239;-64
2023/12/05 08:13:59;;;;;;;23.10;7.50;;;;;;;-3.08;83.67;100103.11;107614;1278;60508;-67
2023/12/05 08:16:47;;;;;;;23.00;8.60;;;;;;;-2.48;83.39;100098.84;107514;1278;74812;-65
2023/12/05 08:19:35;;;;;;;24.50;10.50;;;;;;;-0.66;81.47;100100.34;107504;1279;67975;-65
2023/12/05 08:22:23;;;;;;;25.60;11.10;;;;;;;1.20;74.53;100091.16;107342;1282;72371;-65
2023/12/05 08:25:11;;;;;;;25.20;10.40;;;;;;;2.85;69.26;100086.40;107539;1279;58131;-64
2023/12/05 08:27:59;;;;;;;25.50;10.40;;;;;;;4.26;63.92;100081.73;107469;1277;59119;-64
2023/12/05 08:30:47;;;;;;;24.80;10.10;;;;;;;5.37;57.23;100078.13;107569;1278;75004;-65
2023/12/05 08:33:35;;;;;;;16.70;7.50;;;;;;;6.38;51.39;100072.68;107601;1278;68001;-68
2023/12/05 08:36:23;;;;;;;15.50;6.90;;;;;;;7.18;48.40;100068.88;107605;1276;72948;-65
2023/12/05 08:39:12;;;;;;;14.40;6.40;;;;;;;7.82;45.90;100071.27;107842;1276;58162;-64
2023/12/05 08:42:00;;;;;;;14.30;6.30;;;;;;;8.58;44.58;100073.10;107832;1276;61078;-64
2023/12/05 08:44:47;;;;;;;11.10;4.80;;;;;;;9.05;41.69;100062.34;107857;1276;73864;-65
2023/12/05 08:47:37;;;;;;;9.80;4.10;;;;;;;9.57;40.38;100059.01;107849;1276;66412;-64
2023/12/05 08:50:26;;;;;;;9.90;4.00;;;;;;;9.99;37.70;100057.48;105397;1276;1002444;-64
2023/12/05 08:53:13;;;;;;;9.50;4.10;;;;;;;10.46;37.23;100058.73;107823;1276;58174;-63
2023/12/05 08:56:04;;;;;;;9.70;4.00;;;;;;;10.89;36.44;100059.32;107709;1275;59071;-65
2023/12/05 08:58:55;;;;;;;9.10;3.60;;;;;;;10.61;33.85;100067.36;107836;1276;73651;-65
2023/12/05 09:01:50;;;;;;;8.70;3.50;;;;;;;10.87;34.28;100067.98;107576;1276;67761;-66
2023/12/05 09:04:38;;;;;;;9.10;3.90;;;;;;;11.19;33.51;100068.80;107820;1276;72792;-65
2023/12/05 09:07:26;;;;;;;9.60;3.40;;;;;;;11.31;33.35;100062.02;107829;1277;58125;-65
2023/12/05 09:10:14;;;;;;;8.60;3.20;;;;;;;11.35;32.67;100061.38;107852;1276;61361;-66
2023/12/05 09:13:01;;;;;;;8.50;3.40;;;;;;;11.71;32.26;100061.95;107785;1276;73526;-65
2023/12/05 09:15:50;;;;;;;8.80;3.80;;;;;;;12.13;32.46;100059.36;107865;1275;68671;-65
2023/12/05 09:19:52;;;;;;;9.50;3.20;;;;;;;12.15;30.72;100058.66;107657;1276;71169;-65
2023/12/05 09:24:08;;;;;;;7.60;2.90;;;;;;;12.39;30.83;100061.30;107592;1278;58157;-68
2023/12/05 09:26:56;;;;;;;7.30;2.90;;;;;;;12.53;29.98;100055.31;107589;1279;60346;-65
2023/12/05 09:29:44;;;;;;;8.00;3.20;;;;;;;12.51;29.35;100052.85;107400;1280;72504;-65
2023/12/05 09:32:37;;;;;;;7.80;2.90;;;;;;;12.86;29.89;100043.54;107616;1278;67130;-64
2023/12/05 09:35:25;;;;;;;8.30;3.30;;;;;;;13.41;28.91;100040.52;107517;1279;73964;-65
2023/12/05 09:38:13;;;;;;;7.30;3.00;;;;;;;13.71;28.80;100034.75;107556;1278;58173;-66
2023/12/05 09:41:02;;;;;;;7.80;2.90;;;;;;;13.77;27.62;100037.42;107549;1279;58939;-64
2023/12/05 09:43:53;;;;;;;7.90;3.00;;;;;;;13.82;27.56;100035.74;107596;1279;73887;-65
2023/12/05 09:46:49;;;;;;;7.40;3.20;;;;;;;13.98;27.70;100035.30;107552;1277;68133;-64
2023/12/05 09:49:38;;;;;;;7.80;3.10;;;;;;;14.21;27.16;100030.58;107608;1279;71190;-67
2023/12/05 09:52:28;;;;;;;7.90;3.30;;;;;;;14.19;26.75;100032.85;107507;1279;58228;-64
2023/12/05 09:55:17;;;;;;;7.70;3.10;;;;;;;13.82;26.72;100030.56;107538;1279;61063;-65
2023/12/05 09:58:06;;;;;;;8.90;3.40;;;;;;;14.00;26.85;100032.35;107547;1278;72505;-65
2023/12/05 10:00:56;;;;;;;8.40;3.50;;;;;;;14.12;27.09;100024.05;107641;1278;66587;-65
2023/12/05 10:03:45;;;;;;;9.00;3.60;;;;;;;14.63;26.36;100022.53;107407;1279;73900;-64
2023/12/05 10:06:36;;;;;;;8.80;4.00;;;;;;;14.75;26.06;100022.47;107608;1278;58124;-64
2023/12/05 10:09:27;;;;;;;9.90;4.50;;;;;;;15.15;26.41;100018.63;107546;1279;60328;-66
2023/12/05 10:12:16;;;;;;;9.60;4.70;;;;;;;15.17;25.02;100019.83;107433;1279;72784;-64
2023/12/05 10:15:06;;;;;;;9.90;4.40;;;;;;;14.73;25.59;100021.55;107609;1279;67935;-65
2023/12/05 10:17:54;;;;;;;10.80;4.70;;;;;;;14.60;26.06;100020.48;107526;1279;71657;-64
2023/12/05 10:20:42;;;;;;;10.40;4.70;;;;;;;14.43;25.75;100022.63;107481;1279;58247;-64
2023/12/05 10:23:30;;;;;;;10.20;4.70;;;;;;;14.56;26.09;100021.88;107521;1281;60573;-63
2023/12/05 10:26:18;;;;;;;11.70;5.20;;;;;;;14.71;26.06;100019.23;107546;1279;72567;-65
2023/12/05 10:29:06;;;;;;;11.00;5.60;;;;;;;14.53;25.11;100018.05;107587;1278;66973;-65
2023/12/05 10:31:54;;;;;;;11.60;8.10;;;;;;;14.43;25.45;100018.27;107593;1279;73565;-64
2023/12/05 10:34:48;;;;;;;10.20;5.00;;;;;;;14.32;25.48;100015.81;107563;1278;58276;-65
2023/12/05 10:37:36;;;;;;;10.90;4.80;;;;;;;14.48;25.50;100013.89;107549;1279;60450;-65
2023/12/05 10:40:24;;;;;;;11.30;5.40;;;;;;;14.19;25.13;100015.71;107542;1279;74857;-63
2023/12/05 10:43:12;;;;;;;11.60;5.40;;;;;;;13.72;25.07;100014.39;107551;1278;67649;-65
2023/12/05 10:46:03;;;;;;;12.70;5.10;;;;;;;13.58;25.86;100015.46;107519;1279;71470;-65
2023/12/05 10:48:51;;;;;;;10.70;5.00;;;;;;;13.14;26.01;100012.98;107515;1279;58154;-65
2023/12/05 10:51:39;;;;;;;10.50;5.60;;;;;;;13.33;26.14;100013.44;107628;1279;59391;-68
2023/12/05 10:54:27;;;;;;;11.00;5.50;;;;;;;13.07;26.14;100019.23;107617;1279;74714;-64
2023/12/05 10:57:15;;;;;;;10.30;4.90;;;;;;;12.88;26.11;100014.02;107510;1277;67890;-66
2023/12/05 11:00:05;;;;;;;9.70;4.70;;;;;;;13.14;26.62;100012.38;107434;1279;72769;-65
2023/12/05 11:02:54;;;;;;;11.10;5.00;;;;;;;13.38;26.26;100014.60;107507;1279;58243;-65
2023/12/05 11:05:42;;;;;;;11.40;5.30;;;;;;;13.17;25.86;100010.23;107310;1278;59527;-67
2023/12/05 11:08:33;;;;;;;9.80;4.70;;;;;;;13.00;26.37;100007.61;107507;1280;72596;-66
2023/12/05 11:11:21;;;;;;;11.20;5.10;;;;;;;13.25;26.74;100003.62;107425;1279;67870;-65
2023/12/05 11:14:11;;;;;;;9.40;4.40;;;;;;;12.55;26.86;100004.61;107511;1280;72476;-65
2023/12/05 11:17:03;;;;;;;11.60;5.40;;;;;;;12.70;26.92;99996.70;107408;1278;58595;-63
2023/12/05 11:20:21;;;;;;;9.80;7.30;;;;;;;12.60;26.89;100001.99;107144;1280;58251;-65
2023/12/05 11:23:49;;;;;;;10.40;5.20;;;;;;;12.12;27.17;100011.80;107333;1279;74690;-66
2023/12/05 11:27:10;;;;;;;10.40;5.20;;;;;;;11.13;27.83;100012.27;107482;1279;67683;-65
2023/12/05 11:30:19;;;;;;;10.80;5.40;;;;;;;10.27;29.32;100010.67;107452;1280;72380;-65
2023/12/05 11:33:16;;;;;;;9.80;4.80;;;;;;;9.99;29.63;100015.09;107304;1279;283705;-65
2023/12/05 11:36:36;;;;;;;9.40;5.00;;;;;;;8.74;31.22;100009.34;107670;1279;60332;-65
2023/12/05 11:39:24;;;;;;;11.10;5.60;;;;;;;8.03;32.48;100022.15;107734;1279;72334;-66
2023/12/05 11:42:14;;;;;;;10.00;5.00;;;;;;;7.65;33.27;100020.27;107683;1279;66259;-66
2023/12/05 11:45:21;;;;;;;9.90;4.40;;;;;;;7.49;33.78;100019.95;107795;1279;71186;-68
2023/12/05 11:48:11;;;;;;;8.70;4.10;;;;;;;7.29;34.01;100021.24;107423;1279;59098;-66
2023/12/05 11:51:00;;;;;;;11.20;5.20;;;;;;;7.01;34.61;100018.05;107348;1279;60213;-65
2023/12/05 11:53:49;;;;;;;10.60;5.20;;;;;;;6.54;35.17;100017.80;107336;1279;73903;-65
2023/12/05 11:56:37;;;;;;;11.60;5.00;;;;;;;6.18;35.86;100017.73;107472;1279;67842;-65
2023/12/05 11:59:25;;;;;;;10.70;5.30;;;;;;;6.26;36.41;100015.67;107486;1279;70244;-65
2023/12/05 12:02:44;;;;;;;10.50;4.90;;;;;;;6.07;36.45;100020.61;107412;1280;58179;-68
2023/12/05 12:05:32;;;;;;;11.70;4.70;;;;;;;5.95;36.93;100015.88;107437;1279;58831;-67
2023/12/05 12:08:21;;;;;;;10.90;5.50;;;;;;;5.53;37.11;100017.22;107322;1279;73601;-69
2023/12/05 12:11:09;;;;;;;10.90;5.40;;;;;;;5.35;37.95;100019.30;107473;1279;69091;-66
2023/12/05 12:13:57;;;;;;;10.80;4.90;;;;;;;5.37;38.13;100016.71;107433;1279;73782;-67
2023/12/05 12:16:50;;;;;;;12.40;5.60;;;;;;;5.06;38.34;100017.24;107470;1279;58091;-69
2023/12/05 12:19:38;;;;;;;11.70;5.70;;;;;;;4.78;38.96;100015.08;107517;1279;58923;-67
2023/12/05 12:22:26;;;;;;;13.00;6.20;;;;;;;4.33;39.61;100019.93;107478;1279;73887;-67
2023/12/05 12:25:14;;;;;;;13.20;6.10;;;;;;;4.19;40.17;100020.80;107410;1279;65633;-65
2023/12/05 12:28:02;;;;;;;13.00;6.00;;;;;;;3.57;41.31;100022.71;107452;1279;71445;-69
2023/12/05 12:30:51;;;;;;;15.10;6.40;;;;;;;3.13;42.21;100025.20;107412;1279;58169;-66
2023/12/05 12:33:46;;;;;;;14.70;6.50;;;;;;;2.64;43.37;100025.70;107336;1279;61151;-68
2023/12/05 12:36:36;;;;;;;11.70;5.50;;;;;;;1.82;45.33;100029.42;107279;1279;73515;-66
2023/12/05 12:39:29;;;;;;;13.50;5.90;;;;;;;1.22;47.06;100035.01;107484;1279;68007;-66
2023/12/05 12:42:17;;;;;;;14.40;6.40;;;;;;;0.66;48.62;100040.29;107404;1278;72437;-66
2023/12/05 12:45:06;;;;;;;13.70;5.90;;;;;;;0.34;49.33;100037.60;107450;1279;58700;-66
2023/12/05 12:47:53;;;;;;;13.20;5.70;;;;;;;0.01;50.66;100042.40;107493;1278;59118;-67